sensor_id;sensor_type;location;lat;lon;timestamp;temperature;humidity
17202;DHT22;8717;53.588;10.176;2022-08-20T00:00:58;16.60;99.90
17202;DHT22;8717;53.588;10.176;2022-08-20T00:03:28;16.60;99.90
17202;DHT22;8717;53.588;10.176;2022-08-20T00:05:57;16.60;99.90
17202;DHT22;8717;53.588;10.176;2022-08-20T00:08:25;16.60;99.90
17202;DHT22;8717;53.588;10.176;2022-08-20T00:10:54;16.70;99.90
17202;DHT22;8717;53.588;10.176;2022-08-20T00:13:25;16.70;99.90
17202;DHT22;8717;53.588;10.176;2022-08-20T00:15:52;16.80;99.90
17202;DHT22;8717;53.588;10.176;2022-08-20T00:18:20;16.80;99.90
17202;DHT22;8717;53.588;10.176;2022-08-20T00:20:49;16.80;99.90
17202;DHT22;8717;53.588;10.176;2022-08-20T00:23:16;16.90;99.90
17202;DHT22;8717;53.588;10.176;2022-08-20T00:25:44;16.90;99.90
17202;DHT22;8717;53.588;10.176;2022-08-20T00:28:12;17.00;99.90
17202;DHT22;8717;53.588;10.176;2022-08-20T00:30:41;17.00;99.90
17202;DHT22;8717;53.588;10.176;2022-08-20T00:33:11;17.00;99.90
17202;DHT22;8717;53.588;10.176;2022-08-20T00:35:42;17.00;99.90
17202;DHT22;8717;53.588;10.176;2022-08-20T00:38:08;17.10;99.90
17202;DHT22;8717;53.588;10.176;2022-08-20T00:40:37;17.10;99.90
17202;DHT22;8717;53.588;10.176;2022-08-20T00:43:07;17.10;99.90
17202;DHT22;8717;53.588;10.176;2022-08-20T00:45:51;17.20;99.90
17202;DHT22;8717;53.588;10.176;2022-08-20T00:48:21;17.20;99.90
17202;DHT22;8717;53.588;10.176;2022-08-20T00:50:48;17.30;99.90
17202;DHT22;8717;53.588;10.176;2022-08-20T00:53:14;17.30;99.90
17202;DHT22;8717;53.588;10.176;2022-08-20T00:55:42;17.30;99.90
17202;DHT22;8717;53.588;10.176;2022-08-20T00:58:09;17.30;99.90
17202;DHT22;8717;53.588;10.176;2022-08-20T01:00:43;17.30;99.90
17202;DHT22;8717;53.588;10.176;2022-08-20T01:03:13;17.40;99.90
17202;DHT22;8717;53.588;10.176;2022-08-20T01:05:48;17.40;99.90
17202;DHT22;8717;53.588;10.176;2022-08-20T01:08:17;17.40;99.90
17202;DHT22;8717;53.588;10.176;2022-08-20T01:10:47;17.40;99.90
17202;DHT22;8717;53.588;10.176;2022-08-20T01:13:22;17.50;99.90
17202;DHT22;8717;53.588;10.176;2022-08-20T01:15:52;17.40;99.90
17202;DHT22;8717;53.588;10.176;2022-08-20T01:18:24;17.40;99.90
17202;DHT22;8717;53.588;10.176;2022-08-20T01:20:55;17.50;99.90
17202;DHT22;8717;53.588;10.176;2022-08-20T01:23:28;17.50;99.90
17202;DHT22;8717;53.588;10.176;2022-08-20T01:26:02;17.50;99.90
17202;DHT22;8717;53.588;10.176;2022-08-20T01:28:38;17.50;99.90
17202;DHT22;8717;53.588;10.176;2022-08-20T01:31:09;17.60;99.90
17202;DHT22;8717;53.588;10.176;2022-08-20T01:33:36;17.60;99.90
17202;DHT22;8717;53.588;10.176;2022-08-20T01:36:04;17.60;99.90
17202;DHT22;8717;53.588;10.176;2022-08-20T01:38:32;17.60;99.90
17202;DHT22;8717;53.588;10.176;2022-08-20T01:44:10;17.60;99.90
17202;DHT22;8717;53.588;10.176;2022-08-20T01:46:40;17.60;99.90
17202;DHT22;8717;53.588;10.176;2022-08-20T01:49:09;17.60;99.90
17202;DHT22;8717;53.588;10.176;2022-08-20T01:51:36;17.60;99.90
17202;DHT22;8717;53.588;10.176;2022-08-20T01:54:03;17.60;99.90
17202;DHT22;8717;53.588;10.176;2022-08-20T01:56:32;17.60;99.90
17202;DHT22;8717;53.588;10.176;2022-08-20T01:59:03;17.60;99.90
17202;DHT22;8717;53.588;10.176;2022-08-20T02:01:34;17.60;99.90
17202;DHT22;8717;53.588;10.176;2022-08-20T02:04:02;17.60;99.90
17202;DHT22;8717;53.588;10.176;2022-08-20T02:06:34;17.60;99.90
17202;DHT22;8717;53.588;10.176;2022-08-20T02:09:03;17.60;99.90
17202;DHT22;8717;53.588;10.176;2022-08-20T02:11:36;17.60;99.90
17202;DHT22;8717;53.588;10.176;2022-08-20T02:14:05;17.50;99.90
17202;DHT22;8717;53.588;10.176;2022-08-20T02:16:35;17.60;99.90
17202;DHT22;8717;53.588;10.176;2022-08-20T02:19:06;17.60;99.90
17202;DHT22;8717;53.588;10.176;2022-08-20T02:21:35;17.60;99.90
17202;DHT22;8717;53.588;10.176;2022-08-20T02:24:04;17.60;99.90
17202;DHT22;8717;53.588;10.176;2022-08-20T02:26:30;17.60;99.90
17202;DHT22;8717;53.588;10.176;2022-08-20T02:28:58;17.60;99.90
17202;DHT22;8717;53.588;10.176;2022-08-20T02:31:25;17.60;99.90
17202;DHT22;8717;53.588;10.176;2022-08-20T02:33:52;17.60;99.90
17202;DHT22;8717;53.588;10.176;2022-08-20T02:36:19;17.60;99.90
17202;DHT22;8717;53.588;10.176;2022-08-20T02:38:46;17.60;99.90
17202;DHT22;8717;53.588;10.176;2022-08-20T02:41:13;17.50;99.90
17202;DHT22;8717;53.588;10.176;2022-08-20T02:43:40;17.50;99.90
17202;DHT22;8717;53.588;10.176;2022-08-20T02:46:09;17.50;99.90
17202;DHT22;8717;53.588;10.176;2022-08-20T02:48:36;17.50;99.90
17202;DHT22;8717;53.588;10.176;2022-08-20T02:51:05;17.50;99.90
17202;DHT22;8717;53.588;10.176;2022-08-20T02:53:34;17.50;99.90
17202;DHT22;8717;53.588;10.176;2022-08-20T02:56:03;17.50;99.90
17202;DHT22;8717;53.588;10.176;2022-08-20T02:58:30;17.50;99.90
17202;DHT22;8717;53.588;10.176;2022-08-20T03:00:56;17.50;99.90
17202;DHT22;8717;53.588;10.176;2022-08-20T03:03:24;17.40;99.90
17202;DHT22;8717;53.588;10.176;2022-08-20T03:05:53;17.50;99.90
17202;DHT22;8717;53.588;10.176;2022-08-20T03:08:21;17.50;99.90
17202;DHT22;8717;53.588;10.176;2022-08-20T03:10:50;17.40;99.90
17202;DHT22;8717;53.588;10.176;2022-08-20T03:13:17;17.40;99.90
17202;DHT22;8717;53.588;10.176;2022-08-20T03:15:46;17.40;99.90
17202;DHT22;8717;53.588;10.176;2022-08-20T03:18:14;17.40;99.90
17202;DHT22;8717;53.588;10.176;2022-08-20T03:20:43;17.30;99.90
17202;DHT22;8717;53.588;10.176;2022-08-20T03:23:10;17.30;99.90
17202;DHT22;8717;53.588;10.176;2022-08-20T03:25:37;17.30;99.90
17202;DHT22;8717;53.588;10.176;2022-08-20T03:28:04;17.30;99.90
17202;DHT22;8717;53.588;10.176;2022-08-20T03:30:31;17.30;99.90
17202;DHT22;8717;53.588;10.176;2022-08-20T03:32:58;17.20;99.90
17202;DHT22;8717;53.588;10.176;2022-08-20T03:35:27;17.30;99.90
17202;DHT22;8717;53.588;10.176;2022-08-20T03:37:56;17.30;99.90
17202;DHT22;8717;53.588;10.176;2022-08-20T03:40:25;17.20;99.90
17202;DHT22;8717;53.588;10.176;2022-08-20T03:42:52;17.30;99.90
17202;DHT22;8717;53.588;10.176;2022-08-20T03:45:20;17.20;99.90
17202;DHT22;8717;53.588;10.176;2022-08-20T03:47:48;17.20;99.90
17202;DHT22;8717;53.588;10.176;2022-08-20T03:50:18;17.20;99.90
17202;DHT22;8717;53.588;10.176;2022-08-20T03:52:45;17.20;99.90
17202;DHT22;8717;53.588;10.176;2022-08-20T03:55:14;17.30;99.90
17202;DHT22;8717;53.588;10.176;2022-08-20T03:57:44;17.20;99.90
17202;DHT22;8717;53.588;10.176;2022-08-20T04:00:14;17.30;99.90
17202;DHT22;8717;53.588;10.176;2022-08-20T04:02:41;17.30;99.90
17202;DHT22;8717;53.588;10.176;2022-08-20T04:05:08;17.30;99.90
17202;DHT22;8717;53.588;10.176;2022-08-20T04:07:34;17.30;99.90
17202;DHT22;8717;53.588;10.176;2022-08-20T04:10:05;17.30;99.90
17202;DHT22;8717;53.588;10.176;2022-08-20T04:12:34;17.30;99.90
17202;DHT22;8717;53.588;10.176;2022-08-20T04:15:02;17.40;99.90
17202;DHT22;8717;53.588;10.176;2022-08-20T04:17:29;17.40;99.90
17202;DHT22;8717;53.588;10.176;2022-08-20T04:19:57;17.40;99.90
17202;DHT22;8717;53.588;10.176;2022-08-20T04:22:24;17.50;99.90
17202;DHT22;8717;53.588;10.176;2022-08-20T04:24:51;17.50;99.90
17202;DHT22;8717;53.588;10.176;2022-08-20T04:27:18;17.50;99.90
17202;DHT22;8717;53.588;10.176;2022-08-20T04:29:46;17.50;99.90
17202;DHT22;8717;53.588;10.176;2022-08-20T04:32:15;17.60;99.90
17202;DHT22;8717;53.588;10.176;2022-08-20T04:34:41;17.60;99.90
17202;DHT22;8717;53.588;10.176;2022-08-20T04:37:08;17.60;99.90
17202;DHT22;8717;53.588;10.176;2022-08-20T04:39:36;17.70;99.90
17202;DHT22;8717;53.588;10.176;2022-08-20T04:42:06;17.70;99.90
17202;DHT22;8717;53.588;10.176;2022-08-20T04:44:32;17.70;99.90
17202;DHT22;8717;53.588;10.176;2022-08-20T04:46:59;17.80;99.90
17202;DHT22;8717;53.588;10.176;2022-08-20T04:49:26;17.80;99.90
17202;DHT22;8717;53.588;10.176;2022-08-20T04:51:53;17.80;99.90
17202;DHT22;8717;53.588;10.176;2022-08-20T04:54:20;17.90;99.90
17202;DHT22;8717;53.588;10.176;2022-08-20T04:56:46;17.90;99.90
17202;DHT22;8717;53.588;10.176;2022-08-20T04:59:14;17.90;99.90
17202;DHT22;8717;53.588;10.176;2022-08-20T05:01:41;17.90;99.90
17202;DHT22;8717;53.588;10.176;2022-08-20T05:04:09;18.00;99.90
17202;DHT22;8717;53.588;10.176;2022-08-20T05:06:37;18.00;99.90
17202;DHT22;8717;53.588;10.176;2022-08-20T05:09:05;18.00;99.90
17202;DHT22;8717;53.588;10.176;2022-08-20T05:11:32;18.10;99.90
17202;DHT22;8717;53.588;10.176;2022-08-20T05:14:01;18.10;99.90
17202;DHT22;8717;53.588;10.176;2022-08-20T05:16:29;18.20;99.90
17202;DHT22;8717;53.588;10.176;2022-08-20T05:19:02;18.20;99.90
17202;DHT22;8717;53.588;10.176;2022-08-20T05:21:30;18.20;99.90
17202;DHT22;8717;53.588;10.176;2022-08-20T05:23:56;18.30;99.90
17202;DHT22;8717;53.588;10.176;2022-08-20T05:26:23;18.30;99.90
17202;DHT22;8717;53.588;10.176;2022-08-20T05:28:50;18.40;99.90
17202;DHT22;8717;53.588;10.176;2022-08-20T05:31:17;18.40;99.90
17202;DHT22;8717;53.588;10.176;2022-08-20T05:33:44;18.50;99.90
17202;DHT22;8717;53.588;10.176;2022-08-20T05:36:15;18.50;99.90
17202;DHT22;8717;53.588;10.176;2022-08-20T05:38:43;18.50;99.90
17202;DHT22;8717;53.588;10.176;2022-08-20T05:41:12;18.50;99.90
17202;DHT22;8717;53.588;10.176;2022-08-20T05:43:39;18.60;99.90
17202;DHT22;8717;53.588;10.176;2022-08-20T05:46:05;18.60;99.90
17202;DHT22;8717;53.588;10.176;2022-08-20T05:48:32;18.60;99.90
17202;DHT22;8717;53.588;10.176;2022-08-20T05:51:00;18.70;99.90
17202;DHT22;8717;53.588;10.176;2022-08-20T05:53:27;18.70;99.90
17202;DHT22;8717;53.588;10.176;2022-08-20T05:55:54;18.80;99.90
17202;DHT22;8717;53.588;10.176;2022-08-20T05:58:24;18.80;99.90
17202;DHT22;8717;53.588;10.176;2022-08-20T06:00:52;18.90;99.90
17202;DHT22;8717;53.588;10.176;2022-08-20T06:03:19;19.00;99.90
17202;DHT22;8717;53.588;10.176;2022-08-20T06:06:04;19.00;99.90
17202;DHT22;8717;53.588;10.176;2022-08-20T06:08:31;19.10;99.90
17202;DHT22;8717;53.588;10.176;2022-08-20T06:11:00;19.10;99.90
17202;DHT22;8717;53.588;10.176;2022-08-20T06:13:26;19.20;99.90
17202;DHT22;8717;53.588;10.176;2022-08-20T06:15:53;19.20;99.90
17202;DHT22;8717;53.588;10.176;2022-08-20T06:18:21;19.30;99.90
17202;DHT22;8717;53.588;10.176;2022-08-20T06:20:48;19.40;99.90
17202;DHT22;8717;53.588;10.176;2022-08-20T06:23:15;19.50;99.90
17202;DHT22;8717;53.588;10.176;2022-08-20T06:25:42;19.60;99.90
17202;DHT22;8717;53.588;10.176;2022-08-20T06:28:12;19.70;99.90
17202;DHT22;8717;53.588;10.176;2022-08-20T06:30:39;19.80;99.90
17202;DHT22;8717;53.588;10.176;2022-08-20T06:33:06;20.00;99.90
17202;DHT22;8717;53.588;10.176;2022-08-20T06:35:32;20.10;99.90
17202;DHT22;8717;53.588;10.176;2022-08-20T06:38:02;20.20;99.90
17202;DHT22;8717;53.588;10.176;2022-08-20T06:40:31;20.30;99.90
17202;DHT22;8717;53.588;10.176;2022-08-20T06:42:59;20.40;99.90
17202;DHT22;8717;53.588;10.176;2022-08-20T06:45:29;20.40;99.90
17202;DHT22;8717;53.588;10.176;2022-08-20T06:48:00;20.40;99.90
17202;DHT22;8717;53.588;10.176;2022-08-20T06:50:32;20.40;99.90
17202;DHT22;8717;53.588;10.176;2022-08-20T06:53:04;20.40;99.90
17202;DHT22;8717;53.588;10.176;2022-08-20T06:55:31;20.50;99.90
17202;DHT22;8717;53.588;10.176;2022-08-20T06:57:59;20.50;99.90
17202;DHT22;8717;53.588;10.176;2022-08-20T07:00:28;20.60;99.90
17202;DHT22;8717;53.588;10.176;2022-08-20T07:02:55;20.60;99.90
17202;DHT22;8717;53.588;10.176;2022-08-20T07:05:25;20.70;99.90
17202;DHT22;8717;53.588;10.176;2022-08-20T07:07:52;20.70;99.90
17202;DHT22;8717;53.588;10.176;2022-08-20T07:10:19;20.80;99.90
17202;DHT22;8717;53.588;10.176;2022-08-20T07:12:46;20.90;99.90
17202;DHT22;8717;53.588;10.176;2022-08-20T07:15:16;21.00;99.90
17202;DHT22;8717;53.588;10.176;2022-08-20T07:17:51;21.20;99.90
17202;DHT22;8717;53.588;10.176;2022-08-20T07:20:19;21.40;99.90
17202;DHT22;8717;53.588;10.176;2022-08-20T07:22:47;21.50;99.90
17202;DHT22;8717;53.588;10.176;2022-08-20T07:25:16;21.70;99.90
17202;DHT22;8717;53.588;10.176;2022-08-20T07:27:44;21.70;99.90
17202;DHT22;8717;53.588;10.176;2022-08-20T07:30:13;21.80;99.90
17202;DHT22;8717;53.588;10.176;2022-08-20T07:32:59;21.90;99.90
17202;DHT22;8717;53.588;10.176;2022-08-20T07:35:26;21.90;99.90
17202;DHT22;8717;53.588;10.176;2022-08-20T07:37:53;21.90;99.90
17202;DHT22;8717;53.588;10.176;2022-08-20T07:40:21;21.90;99.90
17202;DHT22;8717;53.588;10.176;2022-08-20T07:42:48;21.90;99.90
17202;DHT22;8717;53.588;10.176;2022-08-20T07:45:16;21.90;99.90
17202;DHT22;8717;53.588;10.176;2022-08-20T07:47:44;21.90;99.90
17202;DHT22;8717;53.588;10.176;2022-08-20T07:50:15;22.00;99.90
17202;DHT22;8717;53.588;10.176;2022-08-20T07:52:42;22.10;99.90
17202;DHT22;8717;53.588;10.176;2022-08-20T07:55:11;22.30;99.90
17202;DHT22;8717;53.588;10.176;2022-08-20T07:57:40;22.40;99.90
17202;DHT22;8717;53.588;10.176;2022-08-20T08:00:09;22.60;99.90
17202;DHT22;8717;53.588;10.176;2022-08-20T08:02:36;22.60;99.90
17202;DHT22;8717;53.588;10.176;2022-08-20T08:05:05;22.70;99.90
17202;DHT22;8717;53.588;10.176;2022-08-20T08:07:34;22.80;99.90
17202;DHT22;8717;53.588;10.176;2022-08-20T08:10:02;23.00;99.90
17202;DHT22;8717;53.588;10.176;2022-08-20T08:12:34;23.40;99.90
17202;DHT22;8717;53.588;10.176;2022-08-20T08:15:03;23.80;99.90
17202;DHT22;8717;53.588;10.176;2022-08-20T08:17:30;24.10;99.90
17202;DHT22;8717;53.588;10.176;2022-08-20T08:19:57;24.40;99.90
17202;DHT22;8717;53.588;10.176;2022-08-20T08:22:24;24.70;99.90
17202;DHT22;8717;53.588;10.176;2022-08-20T08:24:52;25.00;99.90
17202;DHT22;8717;53.588;10.176;2022-08-20T08:27:19;25.40;99.90
17202;DHT22;8717;53.588;10.176;2022-08-20T08:29:46;25.70;99.90
17202;DHT22;8717;53.588;10.176;2022-08-20T08:32:15;26.10;99.90
17202;DHT22;8717;53.588;10.176;2022-08-20T08:34:42;26.50;99.60
17202;DHT22;8717;53.588;10.176;2022-08-20T08:37:12;26.90;99.10
17202;DHT22;8717;53.588;10.176;2022-08-20T08:39:39;27.20;98.50
17202;DHT22;8717;53.588;10.176;2022-08-20T08:42:22;27.50;98.10
17202;DHT22;8717;53.588;10.176;2022-08-20T08:44:51;27.70;96.70
17202;DHT22;8717;53.588;10.176;2022-08-20T08:47:25;28.00;96.50
17202;DHT22;8717;53.588;10.176;2022-08-20T08:49:54;28.10;95.70
17202;DHT22;8717;53.588;10.176;2022-08-20T08:52:24;28.40;95.40
17202;DHT22;8717;53.588;10.176;2022-08-20T08:54:58;28.60;94.50
17202;DHT22;8717;53.588;10.176;2022-08-20T08:57:27;28.90;94.10
17202;DHT22;8717;53.588;10.176;2022-08-20T08:59:56;29.20;94.20
17202;DHT22;8717;53.588;10.176;2022-08-20T09:02:26;29.50;93.90
17202;DHT22;8717;53.588;10.176;2022-08-20T09:04:55;29.90;92.80
17202;DHT22;8717;53.588;10.176;2022-08-20T09:07:25;30.20;91.90
17202;DHT22;8717;53.588;10.176;2022-08-20T09:09:55;30.40;90.80
17202;DHT22;8717;53.588;10.176;2022-08-20T09:12:23;30.60;91.00
17202;DHT22;8717;53.588;10.176;2022-08-20T09:14:53;30.70;90.80
17202;DHT22;8717;53.588;10.176;2022-08-20T09:17:23;30.90;90.10
17202;DHT22;8717;53.588;10.176;2022-08-20T09:19:50;31.00;88.20
17202;DHT22;8717;53.588;10.176;2022-08-20T09:22:19;31.10;87.20
17202;DHT22;8717;53.588;10.176;2022-08-20T09:24:46;30.90;86.80
17202;DHT22;8717;53.588;10.176;2022-08-20T09:27:12;30.80;86.70
17202;DHT22;8717;53.588;10.176;2022-08-20T09:29:39;30.60;86.90
17202;DHT22;8717;53.588;10.176;2022-08-20T09:32:10;30.30;86.70
17202;DHT22;8717;53.588;10.176;2022-08-20T09:34:38;30.10;82.00
17202;DHT22;8717;53.588;10.176;2022-08-20T09:37:06;29.80;82.50
17202;DHT22;8717;53.588;10.176;2022-08-20T09:39:32;29.60;83.00
17202;DHT22;8717;53.588;10.176;2022-08-20T09:42:06;29.40;83.40
17202;DHT22;8717;53.588;10.176;2022-08-20T09:44:34;29.30;83.30
17202;DHT22;8717;53.588;10.176;2022-08-20T09:47:00;29.20;83.90
17202;DHT22;8717;53.588;10.176;2022-08-20T09:49:29;29.10;84.80
17202;DHT22;8717;53.588;10.176;2022-08-20T09:51:57;29.00;84.30
17202;DHT22;8717;53.588;10.176;2022-08-20T09:54:28;29.00;85.00
17202;DHT22;8717;53.588;10.176;2022-08-20T09:56:56;29.10;85.00
17202;DHT22;8717;53.588;10.176;2022-08-20T09:59:23;29.30;84.90
17202;DHT22;8717;53.588;10.176;2022-08-20T10:01:50;29.50;85.50
17202;DHT22;8717;53.588;10.176;2022-08-20T10:04:17;29.80;84.80
17202;DHT22;8717;53.588;10.176;2022-08-20T10:06:45;30.20;83.90
17202;DHT22;8717;53.588;10.176;2022-08-20T10:09:12;30.40;81.10
17202;DHT22;8717;53.588;10.176;2022-08-20T10:11:39;30.70;79.60
17202;DHT22;8717;53.588;10.176;2022-08-20T10:14:06;30.70;78.90
17202;DHT22;8717;53.588;10.176;2022-08-20T10:16:33;30.70;78.60
17202;DHT22;8717;53.588;10.176;2022-08-20T10:19:03;30.70;79.10
17202;DHT22;8717;53.588;10.176;2022-08-20T10:21:32;30.70;78.70
17202;DHT22;8717;53.588;10.176;2022-08-20T10:24:00;30.70;78.20
17202;DHT22;8717;53.588;10.176;2022-08-20T10:26:27;30.70;77.60
17202;DHT22;8717;53.588;10.176;2022-08-20T10:28:54;30.70;76.90
17202;DHT22;8717;53.588;10.176;2022-08-20T10:31:23;30.60;76.70
17202;DHT22;8717;53.588;10.176;2022-08-20T10:33:49;30.50;75.90
17202;DHT22;8717;53.588;10.176;2022-08-20T10:36:18;30.30;76.00
17202;DHT22;8717;53.588;10.176;2022-08-20T10:38:47;30.20;75.80
17202;DHT22;8717;53.588;10.176;2022-08-20T10:41:15;30.10;75.10
17202;DHT22;8717;53.588;10.176;2022-08-20T10:43:42;30.00;75.00
17202;DHT22;8717;53.588;10.176;2022-08-20T10:46:11;29.90;74.40
17202;DHT22;8717;53.588;10.176;2022-08-20T10:48:39;29.90;73.90
17202;DHT22;8717;53.588;10.176;2022-08-20T10:51:05;29.70;74.00
17202;DHT22;8717;53.588;10.176;2022-08-20T10:53:32;29.70;74.20
17202;DHT22;8717;53.588;10.176;2022-08-20T10:55:59;29.50;74.50
17202;DHT22;8717;53.588;10.176;2022-08-20T10:58:27;29.50;75.00
17202;DHT22;8717;53.588;10.176;2022-08-20T11:00:54;29.40;74.30
17202;DHT22;8717;53.588;10.176;2022-08-20T11:03:21;29.30;74.30
17202;DHT22;8717;53.588;10.176;2022-08-20T11:05:47;29.30;74.30
17202;DHT22;8717;53.588;10.176;2022-08-20T11:08:15;29.20;73.50
17202;DHT22;8717;53.588;10.176;2022-08-20T11:10:42;29.10;74.00
17202;DHT22;8717;53.588;10.176;2022-08-20T11:13:09;29.00;73.50
17202;DHT22;8717;53.588;10.176;2022-08-20T11:15:40;29.00;74.40
17202;DHT22;8717;53.588;10.176;2022-08-20T11:18:08;29.10;74.60
17202;DHT22;8717;53.588;10.176;2022-08-20T11:20:35;29.10;74.50
17202;DHT22;8717;53.588;10.176;2022-08-20T11:23:02;29.10;74.80
17202;DHT22;8717;53.588;10.176;2022-08-20T11:25:29;29.10;74.80
17202;DHT22;8717;53.588;10.176;2022-08-20T11:27:56;29.10;74.90
17202;DHT22;8717;53.588;10.176;2022-08-20T11:30:26;28.90;75.10
17202;DHT22;8717;53.588;10.176;2022-08-20T11:32:55;28.80;75.50
17202;DHT22;8717;53.588;10.176;2022-08-20T11:35:22;28.70;75.60
17202;DHT22;8717;53.588;10.176;2022-08-20T11:37:49;28.60;75.40
17202;DHT22;8717;53.588;10.176;2022-08-20T11:40:16;28.40;75.80
17202;DHT22;8717;53.588;10.176;2022-08-20T11:42:42;28.40;75.70
17202;DHT22;8717;53.588;10.176;2022-08-20T11:45:10;28.30;75.60
17202;DHT22;8717;53.588;10.176;2022-08-20T11:47:37;28.30;75.80
17202;DHT22;8717;53.588;10.176;2022-08-20T11:50:07;28.30;75.70
17202;DHT22;8717;53.588;10.176;2022-08-20T11:52:37;28.30;74.80
17202;DHT22;8717;53.588;10.176;2022-08-20T11:55:06;28.30;74.80
17202;DHT22;8717;53.588;10.176;2022-08-20T11:57:37;28.30;75.40
17202;DHT22;8717;53.588;10.176;2022-08-20T12:00:07;28.30;75.50
17202;DHT22;8717;53.588;10.176;2022-08-20T12:02:35;28.30;74.80
17202;DHT22;8717;53.588;10.176;2022-08-20T12:05:02;28.30;74.30
17202;DHT22;8717;53.588;10.176;2022-08-20T12:07:30;28.40;74.60
17202;DHT22;8717;53.588;10.176;2022-08-20T12:09:57;28.40;74.20
17202;DHT22;8717;53.588;10.176;2022-08-20T12:12:24;28.50;73.80
17202;DHT22;8717;53.588;10.176;2022-08-20T12:14:51;28.50;73.30
17202;DHT22;8717;53.588;10.176;2022-08-20T12:17:20;28.60;72.30
17202;DHT22;8717;53.588;10.176;2022-08-20T12:19:49;28.60;72.40
17202;DHT22;8717;53.588;10.176;2022-08-20T12:22:17;28.70;72.20
17202;DHT22;8717;53.588;10.176;2022-08-20T12:24:45;28.80;72.00
17202;DHT22;8717;53.588;10.176;2022-08-20T12:27:15;28.90;70.80
17202;DHT22;8717;53.588;10.176;2022-08-20T12:29:43;29.00;70.60
17202;DHT22;8717;53.588;10.176;2022-08-20T12:32:10;29.00;70.70
17202;DHT22;8717;53.588;10.176;2022-08-20T12:34:40;29.10;70.10
17202;DHT22;8717;53.588;10.176;2022-08-20T12:37:09;29.00;70.00
17202;DHT22;8717;53.588;10.176;2022-08-20T12:39:37;29.10;70.00
17202;DHT22;8717;53.588;10.176;2022-08-20T12:42:06;29.10;68.50
17202;DHT22;8717;53.588;10.176;2022-08-20T12:44:32;29.20;67.30
17202;DHT22;8717;53.588;10.176;2022-08-20T12:47:09;29.20;66.70
17202;DHT22;8717;53.588;10.176;2022-08-20T12:49:37;29.10;66.10
17202;DHT22;8717;53.588;10.176;2022-08-20T12:52:06;29.10;66.40
17202;DHT22;8717;53.588;10.176;2022-08-20T12:54:33;28.90;65.30
17202;DHT22;8717;53.588;10.176;2022-08-20T12:56:59;28.90;66.10
17202;DHT22;8717;53.588;10.176;2022-08-20T12:59:27;28.90;65.40
17202;DHT22;8717;53.588;10.176;2022-08-20T13:01:54;28.90;65.00
17202;DHT22;8717;53.588;10.176;2022-08-20T13:04:21;29.00;65.30
17202;DHT22;8717;53.588;10.176;2022-08-20T13:06:48;29.10;65.70
17202;DHT22;8717;53.588;10.176;2022-08-20T13:09:15;29.20;65.30
17202;DHT22;8717;53.588;10.176;2022-08-20T13:11:42;29.30;64.80
17202;DHT22;8717;53.588;10.176;2022-08-20T13:14:09;29.40;63.50
17202;DHT22;8717;53.588;10.176;2022-08-20T13:16:37;29.40;62.90
17202;DHT22;8717;53.588;10.176;2022-08-20T13:19:03;29.30;62.10
17202;DHT22;8717;53.588;10.176;2022-08-20T13:21:30;29.20;61.70
17202;DHT22;8717;53.588;10.176;2022-08-20T13:23:57;29.10;61.70
17202;DHT22;8717;53.588;10.176;2022-08-20T13:26:23;29.10;61.70
17202;DHT22;8717;53.588;10.176;2022-08-20T13:28:50;29.00;60.80
17202;DHT22;8717;53.588;10.176;2022-08-20T13:31:17;29.10;61.30
17202;DHT22;8717;53.588;10.176;2022-08-20T13:33:45;29.00;61.10
17202;DHT22;8717;53.588;10.176;2022-08-20T13:36:11;29.00;60.80
17202;DHT22;8717;53.588;10.176;2022-08-20T13:38:38;28.90;60.90
17202;DHT22;8717;53.588;10.176;2022-08-20T13:41:05;28.90;61.50
17202;DHT22;8717;53.588;10.176;2022-08-20T13:43:31;28.80;61.80
17202;DHT22;8717;53.588;10.176;2022-08-20T13:45:58;28.80;62.70
17202;DHT22;8717;53.588;10.176;2022-08-20T13:48:25;28.80;62.70
17202;DHT22;8717;53.588;10.176;2022-08-20T13:50:53;28.80;62.50
17202;DHT22;8717;53.588;10.176;2022-08-20T13:53:19;28.80;62.70
17202;DHT22;8717;53.588;10.176;2022-08-20T13:55:49;28.70;63.10
17202;DHT22;8717;53.588;10.176;2022-08-20T13:58:17;28.60;62.80
17202;DHT22;8717;53.588;10.176;2022-08-20T14:00:46;28.60;63.10
17202;DHT22;8717;53.588;10.176;2022-08-20T14:03:16;28.50;63.00
17202;DHT22;8717;53.588;10.176;2022-08-20T14:05:43;28.50;62.70
17202;DHT22;8717;53.588;10.176;2022-08-20T14:08:13;28.40;62.70
17202;DHT22;8717;53.588;10.176;2022-08-20T14:10:41;28.40;62.90
17202;DHT22;8717;53.588;10.176;2022-08-20T14:13:09;28.40;62.70
17202;DHT22;8717;53.588;10.176;2022-08-20T14:15:37;28.30;61.60
17202;DHT22;8717;53.588;10.176;2022-08-20T14:18:06;28.20;62.00
17202;DHT22;8717;53.588;10.176;2022-08-20T14:20:33;28.10;62.30
17202;DHT22;8717;53.588;10.176;2022-08-20T14:23:01;28.10;62.30
17202;DHT22;8717;53.588;10.176;2022-08-20T14:25:30;28.10;62.20
17202;DHT22;8717;53.588;10.176;2022-08-20T14:27:58;28.10;61.60
17202;DHT22;8717;53.588;10.176;2022-08-20T14:30:27;28.10;61.70
17202;DHT22;8717;53.588;10.176;2022-08-20T14:32:54;28.10;60.20
17202;DHT22;8717;53.588;10.176;2022-08-20T14:35:21;28.10;60.20
17202;DHT22;8717;53.588;10.176;2022-08-20T14:37:51;28.00;60.30
17202;DHT22;8717;53.588;10.176;2022-08-20T14:40:24;27.80;59.90
17202;DHT22;8717;53.588;10.176;2022-08-20T14:42:53;27.70;60.10
17202;DHT22;8717;53.588;10.176;2022-08-20T14:45:21;27.50;59.60
17202;DHT22;8717;53.588;10.176;2022-08-20T14:47:50;27.30;59.30
17202;DHT22;8717;53.588;10.176;2022-08-20T14:50:19;27.10;59.30
17202;DHT22;8717;53.588;10.176;2022-08-20T14:52:47;27.00;59.20
17202;DHT22;8717;53.588;10.176;2022-08-20T14:55:16;26.80;59.80
17202;DHT22;8717;53.588;10.176;2022-08-20T14:57:45;26.70;59.80
17202;DHT22;8717;53.588;10.176;2022-08-20T15:00:19;26.60;59.90
17202;DHT22;8717;53.588;10.176;2022-08-20T15:02:46;26.50;60.50
17202;DHT22;8717;53.588;10.176;2022-08-20T15:05:14;26.40;60.20
17202;DHT22;8717;53.588;10.176;2022-08-20T15:07:44;26.40;60.20
17202;DHT22;8717;53.588;10.176;2022-08-20T15:10:13;26.40;60.50
17202;DHT22;8717;53.588;10.176;2022-08-20T15:12:40;26.30;59.50
17202;DHT22;8717;53.588;10.176;2022-08-20T15:15:09;26.30;59.80
17202;DHT22;8717;53.588;10.176;2022-08-20T15:17:42;26.20;59.40
17202;DHT22;8717;53.588;10.176;2022-08-20T15:20:12;26.20;59.30
17202;DHT22;8717;53.588;10.176;2022-08-20T15:22:40;26.20;59.30
17202;DHT22;8717;53.588;10.176;2022-08-20T15:25:11;26.20;59.30
17202;DHT22;8717;53.588;10.176;2022-08-20T15:27:38;26.20;59.30
17202;DHT22;8717;53.588;10.176;2022-08-20T15:30:07;26.20;59.00
17202;DHT22;8717;53.588;10.176;2022-08-20T15:32:35;26.20;58.70
17202;DHT22;8717;53.588;10.176;2022-08-20T15:35:04;26.10;58.60
17202;DHT22;8717;53.588;10.176;2022-08-20T15:37:31;26.00;58.80
17202;DHT22;8717;53.588;10.176;2022-08-20T15:40:02;25.90;58.00